Pagrindinis puslapis
METAR-TAF:

METAR-TAF

Oro uostai :

Kaltag, Aliaska, Jungtinės Amerikos Valstijos

platuma: 64-19N, ilguma: 158-44W, Aukštis: 54 m

Dabartinis oras

Ataskaita buvo paskelbta 47 minutes, ne 20:53 UTC
Ramus vėjas
Temperatūra 8°C
Drėgmė 53%
Slėgis 1002 hPa
Matomumas: 16.1 km
Giedras dangus

METAR: PAKV 212053Z AUTO 00000KT 10SM CLR 08/M01 A2959 RMK SLP022 T00781011 51002 TSNO VIA AUTODIAL

Laikas: 13:40 (21:40 UTC)


TAF: trūkstamas

Orai ataskaitas ir orų prognozės (METAR, TAF).

turimą stotys yra geltonos ir raudonos taškus žemėlapyje.

Perkelti pele per norėdami pamatyti stoties vardą.

Tada spustelėkite, norėdami matyti oro stebėjimo ir prognozės.

Norėdami pakeisti žemėlapį: spustelėkite ant žalios mygtukų su juodo kryžiaus žemyn,; žalią mygtuką su brūkšneliu, jei norite nutolinti; arba žalių rodyklių gretimoms žemėlapius.


METAR-TAF: